sensor_id;sensor_type;location;lat;lon;timestamp;pressure;altitude;pressure_sealevel;temperature;humidity
11678;BME280;5895;41.950;24.372;2023-09-19T00:02:04;87340.16;;;10.62;88.87
11678;BME280;5895;41.950;24.372;2023-09-19T00:04:35;87347.34;;;10.59;89.39
11678;BME280;5895;41.950;24.372;2023-09-19T00:07:05;87346.22;;;10.55;89.54
11678;BME280;5895;41.950;24.372;2023-09-19T00:09:32;87340.00;;;10.56;89.56
11678;BME280;5895;41.950;24.372;2023-09-19T00:12:03;87339.22;;;10.56;89.65
11678;BME280;5895;41.950;24.372;2023-09-19T00:14:31;87340.81;;;10.57;89.78
11678;BME280;5895;41.950;24.372;2023-09-19T00:17:00;87340.56;;;10.58;89.84
11678;BME280;5895;41.950;24.372;2023-09-19T00:19:31;87339.00;;;10.57;89.95
11678;BME280;5895;41.950;24.372;2023-09-19T00:22:00;87334.59;;;10.58;90.57
11678;BME280;5895;41.950;24.372;2023-09-19T00:24:28;87339.00;;;10.57;90.48
11678;BME280;5895;41.950;24.372;2023-09-19T00:26:56;87335.84;;;10.55;90.65
11678;BME280;5895;41.950;24.372;2023-09-19T00:29:25;87337.59;;;10.55;90.11
11678;BME280;5895;41.950;24.372;2023-09-19T00:31:55;87331.44;;;10.56;90.59
11678;BME280;5895;41.950;24.372;2023-09-19T00:34:22;87336.81;;;10.54;91.89
11678;BME280;5895;41.950;24.372;2023-09-19T00:36:51;87333.66;;;10.52;91.57
11678;BME280;5895;41.950;24.372;2023-09-19T00:39:21;87332.06;;;10.51;91.97
11678;BME280;5895;41.950;24.372;2023-09-19T00:41:51;87334.66;;;10.51;91.40
11678;BME280;5895;41.950;24.372;2023-09-19T00:44:18;87326.88;;;10.51;91.60
11678;BME280;5895;41.950;24.372;2023-09-19T00:46:46;87326.09;;;10.51;91.52
11678;BME280;5895;41.950;24.372;2023-09-19T00:49:15;87323.69;;;10.49;92.21
11678;BME280;5895;41.950;24.372;2023-09-19T00:51:46;87325.72;;;10.47;92.17
11678;BME280;5895;41.950;24.372;2023-09-19T00:54:13;87318.72;;;10.48;92.38
11678;BME280;5895;41.950;24.372;2023-09-19T00:56:45;87321.53;;;10.46;92.48
11678;BME280;5895;41.950;24.372;2023-09-19T00:59:14;87325.13;;;10.45;91.62
11678;BME280;5895;41.950;24.372;2023-09-19T01:01:42;87323.56;;;10.44;93.03
11678;BME280;5895;41.950;24.372;2023-09-19T01:04:11;87320.38;;;10.42;93.27
11678;BME280;5895;41.950;24.372;2023-09-19T01:06:38;87320.38;;;10.42;92.45
11678;BME280;5895;41.950;24.372;2023-09-19T01:09:05;87331.75;;;10.41;92.36
11678;BME280;5895;41.950;24.372;2023-09-19T01:11:38;87318.22;;;10.39;93.30
11678;BME280;5895;41.950;24.372;2023-09-19T01:14:17;87310.44;;;10.39;93.77
11678;BME280;5895;41.950;24.372;2023-09-19T01:16:53;87308.84;;;10.38;92.96
11678;BME280;5895;41.950;24.372;2023-09-19T01:19:39;87316.03;;;10.36;95.44
11678;BME280;5895;41.950;24.372;2023-09-19T01:22:16;87310.84;;;10.36;94.33
11678;BME280;5895;41.950;24.372;2023-09-19T01:25:02;87304.88;;;10.36;94.95
11678;BME280;5895;41.950;24.372;2023-09-19T01:27:53;87305.66;;;10.36;95.17
11678;BME280;5895;41.950;24.372;2023-09-19T01:30:32;87307.69;;;10.34;94.36
11678;BME280;5895;41.950;24.372;2023-09-19T01:32:59;87306.50;;;10.30;94.29
11678;BME280;5895;41.950;24.372;2023-09-19T01:35:27;87295.75;;;10.26;94.31
11678;BME280;5895;41.950;24.372;2023-09-19T01:37:55;87295.38;;;10.23;93.65
11678;BME280;5895;41.950;24.372;2023-09-19T01:40:22;87297.00;;;10.24;93.68
11678;BME280;5895;41.950;24.372;2023-09-19T01:42:56;87306.16;;;10.20;93.53
11678;BME280;5895;41.950;24.372;2023-09-19T01:45:33;87297.81;;;10.18;92.92
11678;BME280;5895;41.950;24.372;2023-09-19T01:48:07;87291.03;;;10.17;93.88
11678;BME280;5895;41.950;24.372;2023-09-19T01:50:43;87287.84;;;10.15;94.26
11678;BME280;5895;41.950;24.372;2023-09-19T01:53:17;87291.44;;;10.14;94.66
11678;BME280;5895;41.950;24.372;2023-09-19T01:55:49;87287.28;;;10.13;93.94
11678;BME280;5895;41.950;24.372;2023-09-19T01:58:20;87284.31;;;10.09;92.89
11678;BME280;5895;41.950;24.372;2023-09-19T02:00:50;87294.31;;;10.05;91.61
11678;BME280;5895;41.950;24.372;2023-09-19T02:03:20;87297.16;;;9.97;91.15
11678;BME280;5895;41.950;24.372;2023-09-19T02:05:49;87298.00;;;9.91;92.26
11678;BME280;5895;41.950;24.372;2023-09-19T02:08:17;87288.66;;;9.90;92.52
11678;BME280;5895;41.950;24.372;2023-09-19T02:10:45;87284.47;;;9.89;92.65
11678;BME280;5895;41.950;24.372;2023-09-19T02:13:15;87272.53;;;9.88;92.75
11678;BME280;5895;41.950;24.372;2023-09-19T02:15:44;87279.28;;;9.89;93.67
11678;BME280;5895;41.950;24.372;2023-09-19T02:18:13;87281.28;;;9.87;94.31
11678;BME280;5895;41.950;24.372;2023-09-19T02:20:41;87279.28;;;9.89;95.02
11678;BME280;5895;41.950;24.372;2023-09-19T02:23:09;87274.09;;;9.89;94.59
11678;BME280;5895;41.950;24.372;2023-09-19T02:25:36;87273.66;;;9.92;94.54
11678;BME280;5895;41.950;24.372;2023-09-19T02:28:04;87280.31;;;9.88;94.46
11678;BME280;5895;41.950;24.372;2023-09-19T02:30:31;87272.94;;;9.85;94.33
11678;BME280;5895;41.950;24.372;2023-09-19T02:32:58;87274.09;;;9.89;94.45
11678;BME280;5895;41.950;24.372;2023-09-19T02:35:29;87275.69;;;9.90;94.73
11678;BME280;5895;41.950;24.372;2023-09-19T02:38:00;87266.34;;;9.89;95.54
11678;BME280;5895;41.950;24.372;2023-09-19T02:40:27;87262.50;;;9.92;96.46
11678;BME280;5895;41.950;24.372;2023-09-19T02:42:55;87266.91;;;9.91;96.26
11678;BME280;5895;41.950;24.372;2023-09-19T02:45:24;87270.09;;;9.93;96.29
11678;BME280;5895;41.950;24.372;2023-09-19T02:47:52;87263.31;;;9.92;95.79
11678;BME280;5895;41.950;24.372;2023-09-19T02:50:19;87268.94;;;9.89;94.14
11678;BME280;5895;41.950;24.372;2023-09-19T02:52:47;87261.56;;;9.86;93.84
11678;BME280;5895;41.950;24.372;2023-09-19T02:55:16;87260.41;;;9.82;93.70
11678;BME280;5895;41.950;24.372;2023-09-19T02:57:48;87262.00;;;9.83;94.89
11678;BME280;5895;41.950;24.372;2023-09-19T03:00:16;87260.25;;;9.77;93.89
11678;BME280;5895;41.950;24.372;2023-09-19T03:02:47;87258.06;;;9.74;93.82
11678;BME280;5895;41.950;24.372;2023-09-19T03:05:14;87260.88;;;9.72;94.45
11678;BME280;5895;41.950;24.372;2023-09-19T03:07:41;87268.09;;;9.64;92.44
11678;BME280;5895;41.950;24.372;2023-09-19T03:10:12;87260.78;;;9.61;92.83
11678;BME280;5895;41.950;24.372;2023-09-19T03:12:41;87260.00;;;9.53;91.53
11678;BME280;5895;41.950;24.372;2023-09-19T03:15:08;87261.28;;;9.44;91.51
11678;BME280;5895;41.950;24.372;2023-09-19T03:17:36;87260.53;;;9.37;90.76
11678;BME280;5895;41.950;24.372;2023-09-19T03:20:03;87254.56;;;9.30;90.10
11678;BME280;5895;41.950;24.372;2023-09-19T03:22:34;87261.00;;;9.21;90.65
11678;BME280;5895;41.950;24.372;2023-09-19T03:25:01;87260.22;;;9.14;89.87
11678;BME280;5895;41.950;24.372;2023-09-19T03:27:31;87255.50;;;9.11;91.89
11678;BME280;5895;41.950;24.372;2023-09-19T03:29:58;87263.44;;;9.16;93.09
11678;BME280;5895;41.950;24.372;2023-09-19T03:32:25;87257.81;;;9.19;93.13
11678;BME280;5895;41.950;24.372;2023-09-19T03:34:52;87259.00;;;9.23;94.57
11678;BME280;5895;41.950;24.372;2023-09-19T03:37:20;87253.81;;;9.23;93.77
11678;BME280;5895;41.950;24.372;2023-09-19T03:39:47;87255.84;;;9.21;92.29
11678;BME280;5895;41.950;24.372;2023-09-19T03:42:14;87260.63;;;9.17;91.89
11678;BME280;5895;41.950;24.372;2023-09-19T03:44:42;87257.06;;;9.12;91.30
11678;BME280;5895;41.950;24.372;2023-09-19T03:47:09;87254.47;;;9.12;92.56
11678;BME280;5895;41.950;24.372;2023-09-19T03:49:37;87255.06;;;9.14;93.20
11678;BME280;5895;41.950;24.372;2023-09-19T03:52:04;87257.47;;;9.15;92.33
11678;BME280;5895;41.950;24.372;2023-09-19T03:54:31;87267.44;;;9.12;93.34
11678;BME280;5895;41.950;24.372;2023-09-19T03:56:58;87262.66;;;9.09;93.00
11678;BME280;5895;41.950;24.372;2023-09-19T03:59:25;87270.06;;;9.05;91.87
11678;BME280;5895;41.950;24.372;2023-09-19T04:01:56;87271.50;;;8.94;90.71
11678;BME280;5895;41.950;24.372;2023-09-19T04:04:23;87261.22;;;8.81;90.25
11678;BME280;5895;41.950;24.372;2023-09-19T04:06:51;87263.19;;;8.79;90.75
11678;BME280;5895;41.950;24.372;2023-09-19T04:09:18;87267.19;;;8.82;93.07
11678;BME280;5895;41.950;24.372;2023-09-19T04:11:45;87267.56;;;8.79;91.82
11678;BME280;5895;41.950;24.372;2023-09-19T04:14:12;87273.97;;;8.76;92.21
11678;BME280;5895;41.950;24.372;2023-09-19T04:16:39;87270.38;;;8.77;93.38
11678;BME280;5895;41.950;24.372;2023-09-19T04:19:07;87276.72;;;8.74;92.25
11678;BME280;5895;41.950;24.372;2023-09-19T04:21:34;87273.56;;;8.72;91.22
11678;BME280;5895;41.950;24.372;2023-09-19T04:24:01;87286.28;;;8.74;93.28
11678;BME280;5895;41.950;24.372;2023-09-19T04:26:28;87272.34;;;8.75;93.54
11678;BME280;5895;41.950;24.372;2023-09-19T04:28:55;87269.59;;;8.77;93.24
11678;BME280;5895;41.950;24.372;2023-09-19T04:31:22;87273.53;;;8.79;92.95
11678;BME280;5895;41.950;24.372;2023-09-19T04:33:50;87273.16;;;8.82;92.93
11678;BME280;5895;41.950;24.372;2023-09-19T04:36:18;87277.88;;;8.85;95.14
11678;BME280;5895;41.950;24.372;2023-09-19T04:38:46;87267.94;;;8.89;94.82
11678;BME280;5895;41.950;24.372;2023-09-19T04:41:13;87271.88;;;8.91;94.70
11678;BME280;5895;41.950;24.372;2023-09-19T04:43:41;87277.06;;;8.91;93.70
11678;BME280;5895;41.950;24.372;2023-09-19T04:46:08;87271.53;;;8.88;93.36
11678;BME280;5895;41.950;24.372;2023-09-19T04:48:35;87271.53;;;8.88;93.59
11678;BME280;5895;41.950;24.372;2023-09-19T04:51:02;87275.47;;;8.90;94.28
11678;BME280;5895;41.950;24.372;2023-09-19T04:53:31;87266.72;;;8.91;95.15
11678;BME280;5895;41.950;24.372;2023-09-19T04:55:58;87266.53;;;8.93;96.54
11678;BME280;5895;41.950;24.372;2023-09-19T04:58:25;87271.88;;;8.98;97.31
11678;BME280;5895;41.950;24.372;2023-09-19T05:00:52;87279.00;;;9.02;97.63
11678;BME280;5895;41.950;24.372;2023-09-19T05:03:19;87269.03;;;9.06;97.12
11678;BME280;5895;41.950;24.372;2023-09-19T05:05:47;87268.66;;;9.09;97.02
11678;BME280;5895;41.950;24.372;2023-09-19T05:08:14;87262.03;;;9.13;97.55
11678;BME280;5895;41.950;24.372;2023-09-19T05:10:43;87264.00;;;9.18;96.74
11678;BME280;5895;41.950;24.372;2023-09-19T05:13:10;87262.22;;;9.18;96.85
11678;BME280;5895;41.950;24.372;2023-09-19T05:15:37;87264.19;;;9.23;98.18
11678;BME280;5895;41.950;24.372;2023-09-19T05:18:04;87262.16;;;9.25;97.32
11678;BME280;5895;41.950;24.372;2023-09-19T05:20:32;87267.34;;;9.25;97.58
11678;BME280;5895;41.950;24.372;2023-09-19T05:23:02;87267.34;;;9.25;97.68
11678;BME280;5895;41.950;24.372;2023-09-19T05:25:33;87274.13;;;9.26;97.41
11678;BME280;5895;41.950;24.372;2023-09-19T05:28:05;87272.53;;;9.25;95.55
11678;BME280;5895;41.950;24.372;2023-09-19T05:30:33;87277.13;;;9.23;95.29
11678;BME280;5895;41.950;24.372;2023-09-19T05:33:01;87282.88;;;9.25;96.20
11678;BME280;5895;41.950;24.372;2023-09-19T05:35:30;87277.88;;;9.30;96.89
11678;BME280;5895;41.950;24.372;2023-09-19T05:37:58;87286.81;;;9.34;96.28
11678;BME280;5895;41.950;24.372;2023-09-19T05:40:25;87280.41;;;9.43;95.78
11678;BME280;5895;41.950;24.372;2023-09-19T05:42:52;87277.72;;;9.57;95.90
11678;BME280;5895;41.950;24.372;2023-09-19T05:45:21;87271.03;;;9.74;97.55
11678;BME280;5895;41.950;24.372;2023-09-19T05:47:49;87277.72;;;9.88;96.97
11678;BME280;5895;41.950;24.372;2023-09-19T05:50:16;87269.41;;;10.04;98.29
11678;BME280;5895;41.950;24.372;2023-09-19T05:52:51;87275.63;;;10.22;99.98
11678;BME280;5895;41.950;24.372;2023-09-19T05:55:18;87278.56;;;10.32;98.67
11678;BME280;5895;41.950;24.372;2023-09-19T05:57:49;87275.63;;;10.47;97.23
11678;BME280;5895;41.950;24.372;2023-09-19T06:00:17;87271.69;;;10.63;98.06
11678;BME280;5895;41.950;24.372;2023-09-19T06:02:51;87272.13;;;10.78;98.81
11678;BME280;5895;41.950;24.372;2023-09-19T06:05:19;87270.72;;;10.94;97.89
11678;BME280;5895;41.950;24.372;2023-09-19T06:07:46;87274.56;;;11.09;98.90
11678;BME280;5895;41.950;24.372;2023-09-19T06:10:13;87268.75;;;11.26;98.87
11678;BME280;5895;41.950;24.372;2023-09-19T06:12:40;87272.56;;;11.42;100.00
11678;BME280;5895;41.950;24.372;2023-09-19T06:15:10;87261.88;;;11.61;100.00
11678;BME280;5895;41.950;24.372;2023-09-19T06:17:41;87266.03;;;11.81;100.00
11678;BME280;5895;41.950;24.372;2023-09-19T06:20:10;87262.34;;;12.00;99.38
11678;BME280;5895;41.950;24.372;2023-09-19T06:22:40;87263.88;;;12.20;98.57
11678;BME280;5895;41.950;24.372;2023-09-19T06:25:09;87252.31;;;12.39;97.70
11678;BME280;5895;41.950;24.372;2023-09-19T06:27:38;87263.19;;;12.59;99.90
11678;BME280;5895;41.950;24.372;2023-09-19T06:30:07;87262.28;;;12.77;97.88
11678;BME280;5895;41.950;24.372;2023-09-19T06:32:35;87258.19;;;12.93;95.60
11678;BME280;5895;41.950;24.372;2023-09-19T06:35:02;87255.44;;;13.11;96.66
11678;BME280;5895;41.950;24.372;2023-09-19T06:37:35;87255.53;;;13.28;95.70
11678;BME280;5895;41.950;24.372;2023-09-19T06:40:06;87252.75;;;13.46;97.05
11678;BME280;5895;41.950;24.372;2023-09-19T06:42:34;87252.25;;;13.61;94.45
11678;BME280;5895;41.950;24.372;2023-09-19T06:45:03;87250.94;;;13.75;94.34
11678;BME280;5895;41.950;24.372;2023-09-19T06:47:31;87252.22;;;13.90;93.02
11678;BME280;5895;41.950;24.372;2023-09-19T06:49:58;87243.63;;;14.06;92.21
11678;BME280;5895;41.950;24.372;2023-09-19T06:52:25;87242.41;;;14.25;94.22
11678;BME280;5895;41.950;24.372;2023-09-19T06:54:54;87247.38;;;14.44;92.39
11678;BME280;5895;41.950;24.372;2023-09-19T06:57:22;87255.00;;;14.62;91.00
11678;BME280;5895;41.950;24.372;2023-09-19T06:59:50;87252.69;;;14.82;87.83
11678;BME280;5895;41.950;24.372;2023-09-19T07:02:17;87248.75;;;15.02;86.73
11678;BME280;5895;41.950;24.372;2023-09-19T07:04:44;87250.06;;;15.21;85.98
11678;BME280;5895;41.950;24.372;2023-09-19T07:07:11;87259.13;;;15.35;85.00
11678;BME280;5895;41.950;24.372;2023-09-19T07:09:38;87254.88;;;15.51;84.39
11678;BME280;5895;41.950;24.372;2023-09-19T07:12:07;87255.06;;;15.67;83.79
11678;BME280;5895;41.950;24.372;2023-09-19T07:14:34;87253.41;;;15.82;83.18
11678;BME280;5895;41.950;24.372;2023-09-19T07:17:01;87258.25;;;15.96;82.96
11678;BME280;5895;41.950;24.372;2023-09-19T07:19:29;87257.84;;;16.09;82.00
11678;BME280;5895;41.950;24.372;2023-09-19T07:21:57;87259.09;;;16.28;80.85
11678;BME280;5895;41.950;24.372;2023-09-19T07:24:24;87260.84;;;16.50;80.44
11678;BME280;5895;41.950;24.372;2023-09-19T07:26:54;87258.47;;;16.75;79.21
11678;BME280;5895;41.950;24.372;2023-09-19T07:29:22;87256.00;;;16.96;76.98
11678;BME280;5895;41.950;24.372;2023-09-19T07:31:51;87253.66;;;17.04;76.77
11678;BME280;5895;41.950;24.372;2023-09-19T07:34:18;87264.97;;;17.10;76.83
11678;BME280;5895;41.950;24.372;2023-09-19T07:36:47;87256.88;;;17.16;76.75
11678;BME280;5895;41.950;24.372;2023-09-19T07:39:14;87249.94;;;17.42;76.13
11678;BME280;5895;41.950;24.372;2023-09-19T07:41:41;87248.22;;;17.63;74.95
11678;BME280;5895;41.950;24.372;2023-09-19T07:44:08;87253.78;;;17.72;74.85
11678;BME280;5895;41.950;24.372;2023-09-19T07:46:37;87245.22;;;17.97;74.72
11678;BME280;5895;41.950;24.372;2023-09-19T07:49:04;87244.78;;;18.31;73.88
11678;BME280;5895;41.950;24.372;2023-09-19T07:51:32;87239.78;;;18.55;72.84
11678;BME280;5895;41.950;24.372;2023-09-19T07:53:59;87248.22;;;18.67;71.85
11678;BME280;5895;41.950;24.372;2023-09-19T07:56:26;87252.47;;;18.93;71.63
11678;BME280;5895;41.950;24.372;2023-09-19T07:58:53;87251.13;;;19.21;71.03
11678;BME280;5895;41.950;24.372;2023-09-19T08:01:20;87243.97;;;19.42;69.22
11678;BME280;5895;41.950;24.372;2023-09-19T08:03:50;87239.75;;;19.46;69.89
11678;BME280;5895;41.950;24.372;2023-09-19T08:06:18;87230.53;;;19.54;69.51
11678;BME280;5895;41.950;24.372;2023-09-19T08:08:46;87239.22;;;19.54;69.06
11678;BME280;5895;41.950;24.372;2023-09-19T08:11:15;87236.03;;;19.52;69.42
11678;BME280;5895;41.950;24.372;2023-09-19T08:13:46;87236.03;;;19.68;68.87
11678;BME280;5895;41.950;24.372;2023-09-19T08:16:15;87239.88;;;19.91;68.80
11678;BME280;5895;41.950;24.372;2023-09-19T08:18:47;87237.16;;;20.16;65.67
11678;BME280;5895;41.950;24.372;2023-09-19T08:21:15;87229.88;;;20.42;67.56
11678;BME280;5895;41.950;24.372;2023-09-19T08:23:42;87230.81;;;20.67;66.22
11678;BME280;5895;41.950;24.372;2023-09-19T08:26:10;87234.34;;;20.86;65.38
11678;BME280;5895;41.950;24.372;2023-09-19T08:28:37;87227.44;;;20.95;63.59
11678;BME280;5895;41.950;24.372;2023-09-19T08:31:07;87224.69;;;21.10;64.12
11678;BME280;5895;41.950;24.372;2023-09-19T08:33:35;87228.81;;;21.22;64.16
11678;BME280;5895;41.950;24.372;2023-09-19T08:36:03;87218.59;;;21.44;64.08
11678;BME280;5895;41.950;24.372;2023-09-19T08:38:34;87224.78;;;21.58;59.76
11678;BME280;5895;41.950;24.372;2023-09-19T08:41:06;87227.72;;;21.81;62.76
11678;BME280;5895;41.950;24.372;2023-09-19T08:43:34;87218.47;;;22.02;63.01
11678;BME280;5895;41.950;24.372;2023-09-19T08:46:09;87204.53;;;22.21;59.32
11678;BME280;5895;41.950;24.372;2023-09-19T08:48:39;87211.69;;;22.39;60.61
11678;BME280;5895;41.950;24.372;2023-09-19T08:51:18;87216.78;;;22.54;57.20
11678;BME280;5895;41.950;24.372;2023-09-19T08:53:51;87219.16;;;22.75;54.64
11678;BME280;5895;41.950;24.372;2023-09-19T08:56:19;87220.00;;;22.89;60.90
11678;BME280;5895;41.950;24.372;2023-09-19T08:58:50;87215.56;;;23.03;57.46
11678;BME280;5895;41.950;24.372;2023-09-19T09:01:19;87213.25;;;23.15;61.24
11678;BME280;5895;41.950;24.372;2023-09-19T09:03:51;87222.13;;;23.25;60.35
11678;BME280;5895;41.950;24.372;2023-09-19T09:06:18;87217.06;;;23.42;59.78
11678;BME280;5895;41.950;24.372;2023-09-19T09:08:46;87223.75;;;23.53;59.97
11678;BME280;5895;41.950;24.372;2023-09-19T09:11:15;87215.97;;;23.75;58.78
11678;BME280;5895;41.950;24.372;2023-09-19T09:13:43;87219.31;;;23.95;59.53
11678;BME280;5895;41.950;24.372;2023-09-19T09:16:10;87213.63;;;24.15;59.27
11678;BME280;5895;41.950;24.372;2023-09-19T09:18:38;87207.53;;;24.28;58.80
11678;BME280;5895;41.950;24.372;2023-09-19T09:21:05;87208.91;;;24.40;59.19
11678;BME280;5895;41.950;24.372;2023-09-19T09:23:32;87205.47;;;24.53;59.03
11678;BME280;5895;41.950;24.372;2023-09-19T09:26:00;87202.19;;;24.70;59.36
11678;BME280;5895;41.950;24.372;2023-09-19T09:28:32;87198.41;;;24.85;56.32
11678;BME280;5895;41.950;24.372;2023-09-19T09:31:01;87198.53;;;25.02;58.48
11678;BME280;5895;41.950;24.372;2023-09-19T09:33:33;87212.63;;;25.25;58.71
11678;BME280;5895;41.950;24.372;2023-09-19T09:36:02;87204.25;;;25.31;58.74
11678;BME280;5895;41.950;24.372;2023-09-19T09:38:43;87203.47;;;25.53;49.39
11678;BME280;5895;41.950;24.372;2023-09-19T09:41:11;87203.09;;;25.46;58.15
11678;BME280;5895;41.950;24.372;2023-09-19T09:43:42;87203.88;;;25.47;57.82
11678;BME280;5895;41.950;24.372;2023-09-19T09:46:13;87199.41;;;25.56;57.77
11678;BME280;5895;41.950;24.372;2023-09-19T09:49:01;87203.75;;;25.74;57.69
11678;BME280;5895;41.950;24.372;2023-09-19T09:51:42;87194.06;;;25.78;57.59
11678;BME280;5895;41.950;24.372;2023-09-19T09:54:13;87194.78;;;25.93;56.44
11678;BME280;5895;41.950;24.372;2023-09-19T09:56:54;87193.25;;;26.09;45.66
11678;BME280;5895;41.950;24.372;2023-09-19T09:59:50;87192.59;;;25.95;47.20
11678;BME280;5895;41.950;24.372;2023-09-19T10:02:20;87195.81;;;25.83;57.49
11678;BME280;5895;41.950;24.372;2023-09-19T10:04:51;87198.44;;;25.74;57.79
11678;BME280;5895;41.950;24.372;2023-09-19T10:07:28;87193.72;;;25.71;56.09
11678;BME280;5895;41.950;24.372;2023-09-19T10:09:59;87203.38;;;25.67;57.85
11678;BME280;5895;41.950;24.372;2023-09-19T10:12:42;87215.22;;;25.61;52.05
11678;BME280;5895;41.950;24.372;2023-09-19T10:15:12;87212.44;;;25.66;56.97
11678;BME280;5895;41.950;24.372;2023-09-19T10:17:42;87203.81;;;25.61;58.10
11678;BME280;5895;41.950;24.372;2023-09-19T10:20:14;87205.19;;;25.80;56.68
11678;BME280;5895;41.950;24.372;2023-09-19T10:23:04;87201.03;;;25.97;56.54
11678;BME280;5895;41.950;24.372;2023-09-19T10:25:36;87200.97;;;26.19;58.08
11678;BME280;5895;41.950;24.372;2023-09-19T10:28:06;87200.13;;;26.41;57.32
11678;BME280;5895;41.950;24.372;2023-09-19T10:30:40;87194.97;;;26.45;54.66
11678;BME280;5895;41.950;24.372;2023-09-19T10:33:11;87196.94;;;26.30;57.78
11678;BME280;5895;41.950;24.372;2023-09-19T10:35:42;87196.06;;;26.04;57.98
11678;BME280;5895;41.950;24.372;2023-09-19T10:38:10;87195.59;;;26.02;57.84
11678;BME280;5895;41.950;24.372;2023-09-19T10:40:38;87193.03;;;25.88;57.79
11678;BME280;5895;41.950;24.372;2023-09-19T10:43:12;87190.69;;;25.64;57.37
11678;BME280;5895;41.950;24.372;2023-09-19T10:45:44;87199.97;;;25.44;56.70
11678;BME280;5895;41.950;24.372;2023-09-19T10:48:12;87191.91;;;25.36;58.77
11678;BME280;5895;41.950;24.372;2023-09-19T10:50:44;87182.03;;;25.27;52.67
11678;BME280;5895;41.950;24.372;2023-09-19T10:53:14;87181.38;;;25.22;59.04
11678;BME280;5895;41.950;24.372;2023-09-19T10:55:50;87178.97;;;25.12;52.88
11678;BME280;5895;41.950;24.372;2023-09-19T10:58:29;87175.63;;;25.06;50.02
11678;BME280;5895;41.950;24.372;2023-09-19T11:01:01;87179.25;;;25.10;58.03
11678;BME280;5895;41.950;24.372;2023-09-19T11:03:37;87171.88;;;25.07;57.69
11678;BME280;5895;41.950;24.372;2023-09-19T11:06:11;87178.47;;;25.10;57.37
11678;BME280;5895;41.950;24.372;2023-09-19T11:09:01;87173.06;;;25.01;49.27
11678;BME280;5895;41.950;24.372;2023-09-19T11:11:48;87178.25;;;24.84;58.43
11678;BME280;5895;41.950;24.372;2023-09-19T11:14:30;87166.41;;;24.67;51.95
11678;BME280;5895;41.950;24.372;2023-09-19T11:20:19;87169.31;;;24.43;50.25
11678;BME280;5895;41.950;24.372;2023-09-19T11:23:24;87164.91;;;24.39;51.01
11678;BME280;5895;41.950;24.372;2023-09-19T11:25:52;87161.16;;;24.40;59.25
11678;BME280;5895;41.950;24.372;2023-09-19T11:28:35;87163.34;;;24.38;52.58
11678;BME280;5895;41.950;24.372;2023-09-19T11:34:39;87162.72;;;24.41;51.90
11678;BME280;5895;41.950;24.372;2023-09-19T11:40:12;87153.91;;;24.32;56.19
11678;BME280;5895;41.950;24.372;2023-09-19T11:42:43;87154.00;;;24.26;58.05
11678;BME280;5895;41.950;24.372;2023-09-19T11:46:05;87160.00;;;24.18;49.77
11678;BME280;5895;41.950;24.372;2023-09-19T11:48:32;87152.53;;;24.07;58.02
11678;BME280;5895;41.950;24.372;2023-09-19T11:51:11;87150.59;;;23.85;51.68
11678;BME280;5895;41.950;24.372;2023-09-19T11:53:45;87145.31;;;23.71;57.74
11678;BME280;5895;41.950;24.372;2023-09-19T11:56:16;87153.72;;;23.59;57.11
11678;BME280;5895;41.950;24.372;2023-09-19T11:58:44;87146.84;;;23.58;57.68
11678;BME280;5895;41.950;24.372;2023-09-19T12:01:16;87142.72;;;23.52;52.72
11678;BME280;5895;41.950;24.372;2023-09-19T12:03:53;87147.41;;;23.55;54.63
11678;BME280;5895;41.950;24.372;2023-09-19T12:06:21;87134.50;;;23.95;55.92
11678;BME280;5895;41.950;24.372;2023-09-19T12:08:49;87146.41;;;24.34;55.80
11678;BME280;5895;41.950;24.372;2023-09-19T12:11:22;87140.47;;;24.64;52.91
11678;BME280;5895;41.950;24.372;2023-09-19T12:13:50;87138.88;;;24.63;55.12
11678;BME280;5895;41.950;24.372;2023-09-19T12:16:20;87138.06;;;24.76;54.65
11678;BME280;5895;41.950;24.372;2023-09-19T12:18:49;87143.09;;;25.00;54.54
11678;BME280;5895;41.950;24.372;2023-09-19T12:21:27;87139.88;;;25.35;47.22
11678;BME280;5895;41.950;24.372;2023-09-19T12:24:14;87137.38;;;25.69;45.91
11678;BME280;5895;41.950;24.372;2023-09-19T12:26:47;87130.50;;;25.99;53.03
11678;BME280;5895;41.950;24.372;2023-09-19T12:29:19;87127.28;;;26.28;53.00
11678;BME280;5895;41.950;24.372;2023-09-19T12:31:54;87136.28;;;26.50;45.62
11678;BME280;5895;41.950;24.372;2023-09-19T12:34:25;87132.41;;;26.73;51.82
11678;BME280;5895;41.950;24.372;2023-09-19T12:37:10;87129.09;;;26.94;43.45
11678;BME280;5895;41.950;24.372;2023-09-19T12:39:47;87125.97;;;27.09;51.52
11678;BME280;5895;41.950;24.372;2023-09-19T12:42:19;87124.56;;;27.03;50.92
11678;BME280;5895;41.950;24.372;2023-09-19T12:44:47;87119.06;;;26.99;51.79
11678;BME280;5895;41.950;24.372;2023-09-19T12:47:17;87117.03;;;26.96;51.65
11678;BME280;5895;41.950;24.372;2023-09-19T12:50:07;87126.13;;;27.04;44.16
11678;BME280;5895;41.950;24.372;2023-09-19T12:52:40;87117.69;;;27.19;52.10
11678;BME280;5895;41.950;24.372;2023-09-19T12:55:07;87117.16;;;27.43;51.04
11678;BME280;5895;41.950;24.372;2023-09-19T12:57:38;87113.81;;;27.63;50.93
11678;BME280;5895;41.950;24.372;2023-09-19T13:00:06;87118.16;;;27.85;50.64
11678;BME280;5895;41.950;24.372;2023-09-19T13:02:36;87116.72;;;27.97;50.78
11678;BME280;5895;41.950;24.372;2023-09-19T13:05:04;87109.03;;;27.95;51.61
11678;BME280;5895;41.950;24.372;2023-09-19T13:07:42;87107.69;;;28.10;44.89
11678;BME280;5895;41.950;24.372;2023-09-19T13:10:14;87113.31;;;28.17;51.70
11678;BME280;5895;41.950;24.372;2023-09-19T13:12:44;87110.94;;;28.24;49.25
11678;BME280;5895;41.950;24.372;2023-09-19T13:15:14;87112.34;;;28.21;51.19
11678;BME280;5895;41.950;24.372;2023-09-19T13:17:46;87114.88;;;28.18;50.84
11678;BME280;5895;41.950;24.372;2023-09-19T13:20:22;87113.47;;;27.82;44.90
11678;BME280;5895;41.950;24.372;2023-09-19T13:22:53;87115.09;;;27.57;51.41
11678;BME280;5895;41.950;24.372;2023-09-19T13:25:24;87116.25;;;27.39;52.13
11678;BME280;5895;41.950;24.372;2023-09-19T13:27:54;87113.25;;;27.40;51.56
11678;BME280;5895;41.950;24.372;2023-09-19T13:30:22;87114.31;;;27.48;52.00